createdAt,value
2018-04-17T00:00:12.234Z,17.10
2018-04-17T00:02:41.267Z,13.20
2018-04-17T00:05:09.536Z,13.50
2018-04-17T00:07:38.572Z,13.93
2018-04-17T00:10:06.844Z,14.60
2018-04-17T00:12:35.119Z,11.73
2018-04-17T00:15:04.179Z,13.80
2018-04-17T00:17:32.450Z,14.48
2018-04-17T00:20:00.748Z,13.70
2018-04-17T00:22:29.024Z,13.43
2018-04-17T00:24:57.284Z,14.57
2018-04-17T00:27:25.539Z,20.27
2018-04-17T00:29:53.815Z,17.98
2018-04-17T00:32:22.099Z,13.80
2018-04-17T00:34:50.354Z,14.27
2018-04-17T00:37:19.383Z,14.07
2018-04-17T00:39:47.641Z,13.88
2018-04-17T00:42:15.911Z,17.23
2018-04-17T00:44:44.196Z,14.35
2018-04-17T00:47:12.455Z,15.13
2018-04-17T00:49:40.734Z,14.17
2018-04-17T00:52:08.996Z,13.67
2018-04-17T00:54:38.047Z,17.35
2018-04-17T00:57:06.301Z,13.17
2018-04-17T00:59:35.404Z,13.02
2018-04-17T01:02:03.665Z,14.63
2018-04-17T01:04:31.923Z,14.55
2018-04-17T01:07:00.254Z,15.03
2018-04-17T01:09:28.516Z,14.80
2018-04-17T01:11:56.781Z,15.03
2018-04-17T01:14:25.055Z,11.27
2018-04-17T01:16:54.075Z,15.93
2018-04-17T01:19:22.340Z,16.08
2018-04-17T01:21:51.389Z,15.40
2018-04-17T01:24:19.660Z,15.65
2018-04-17T01:26:47.911Z,13.63
2018-04-17T01:29:16.175Z,17.20
2018-04-17T01:31:44.438Z,13.63
2018-04-17T01:34:12.712Z,17.25
2018-04-17T01:36:41.754Z,11.97
2018-04-17T01:39:10.024Z,16.67
2018-04-17T01:41:38.283Z,17.20
2018-04-17T01:44:07.327Z,17.98
2018-04-17T01:46:35.592Z,13.13
2018-04-17T01:49:04.612Z,14.30
2018-04-17T01:51:32.909Z,17.45
2018-04-17T01:54:01.173Z,14.75
2018-04-17T01:56:30.238Z,17.75
2018-04-17T01:58:59.319Z,19.00
2018-04-17T02:01:27.579Z,14.82
2018-04-17T02:03:56.612Z,16.30
2018-04-17T02:06:24.882Z,14.85
2018-04-17T02:08:53.158Z,15.18
2018-04-17T02:11:22.176Z,17.45
2018-04-17T02:13:51.219Z,13.20
2018-04-17T02:16:19.477Z,15.80
2018-04-17T02:18:48.503Z,16.13
2018-04-17T02:21:16.767Z,15.05
2018-04-17T02:23:45.800Z,17.90
2018-04-17T02:26:14.103Z,17.12
2018-04-17T02:28:42.380Z,18.77
2018-04-17T02:31:10.625Z,14.75
2018-04-17T02:33:38.891Z,17.27
2018-04-17T02:36:07.168Z,16.17
2018-04-17T02:38:35.427Z,18.60
2018-04-17T02:41:04.460Z,13.80
2018-04-17T02:43:32.734Z,15.53
2018-04-17T02:46:00.993Z,16.35
2018-04-17T02:48:30.043Z,16.58
2018-04-17T02:50:58.320Z,15.57
2018-04-17T02:53:26.591Z,19.27
2018-04-17T02:55:55.619Z,16.05
2018-04-17T02:58:23.928Z,17.23
2018-04-17T03:00:52.188Z,15.45
2018-04-17T03:03:21.196Z,16.73
2018-04-17T03:05:50.340Z,17.98
2018-04-17T03:08:18.592Z,15.60
2018-04-17T03:10:46.859Z,17.45
2018-04-17T03:13:15.124Z,18.93
2018-04-17T03:15:43.389Z,17.83
2018-04-17T03:18:11.655Z,24.00
2018-04-17T03:20:39.926Z,14.75
2018-04-17T03:23:08.960Z,14.57
2018-04-17T03:25:37.214Z,15.18
2018-04-17T03:28:05.508Z,13.40
2018-04-17T03:30:33.785Z,14.32
2018-04-17T03:33:02.226Z,19.17
2018-04-17T03:35:30.499Z,18.08
2018-04-17T03:37:59.525Z,17.07
2018-04-17T03:40:27.800Z,18.33
2018-04-17T03:42:56.844Z,16.98
2018-04-17T03:45:25.103Z,23.10
2018-04-17T03:47:53.375Z,17.33
2018-04-17T03:50:22.443Z,18.02
2018-04-17T03:52:50.691Z,18.80
2018-04-17T03:55:18.973Z,23.77
2018-04-17T03:57:48.213Z,23.45
2018-04-17T04:00:16.483Z,23.33
2018-04-17T04:02:44.747Z,25.75
2018-04-17T04:05:13.011Z,22.27
2018-04-17T04:07:41.283Z,23.30
2018-04-17T04:10:09.748Z,16.93
2018-04-17T04:12:38.012Z,23.30
2018-04-17T04:15:07.043Z,22.23
2018-04-17T04:17:53.004Z,23.27
2018-04-17T04:20:38.703Z,22.10
2018-04-17T04:23:24.546Z,19.30
2018-04-17T04:26:10.436Z,20.12
2018-04-17T04:28:39.475Z,22.90
2018-04-17T04:31:07.731Z,24.23
2018-04-17T04:33:36.778Z,19.52
2018-04-17T04:36:05.045Z,20.65
2018-04-17T04:38:33.336Z,21.17
2018-04-17T04:41:01.611Z,18.75
2018-04-17T04:43:30.665Z,24.83
2018-04-17T04:45:58.922Z,22.92
2018-04-17T04:48:27.202Z,23.55
2018-04-17T04:50:56.230Z,20.83
2018-04-17T04:53:24.495Z,21.55
2018-04-17T04:55:53.550Z,21.10
2018-04-17T04:58:21.809Z,18.87
2018-04-17T05:00:50.068Z,18.27
2018-04-17T05:03:18.354Z,18.70
2018-04-17T05:05:46.613Z,18.73
2018-04-17T05:08:14.883Z,20.92
2018-04-17T05:10:43.157Z,16.83
2018-04-17T05:13:11.443Z,20.83
2018-04-17T05:15:39.704Z,17.87
2018-04-17T05:18:07.963Z,18.50
2018-04-17T05:20:36.250Z,17.80
2018-04-17T05:23:04.506Z,18.23
2018-04-17T05:25:33.579Z,18.80
2018-04-17T05:28:01.864Z,15.88
2018-04-17T05:30:30.247Z,19.20
2018-04-17T05:32:58.499Z,22.10
2018-04-17T05:35:26.840Z,21.73
2018-04-17T05:37:55.093Z,18.50
2018-04-17T05:40:23.352Z,20.43
2018-04-17T05:42:51.667Z,20.27
2018-04-17T05:45:19.931Z,16.52
2018-04-17T05:47:48.967Z,17.85
2018-04-17T05:50:17.249Z,19.93
2018-04-17T05:52:45.533Z,18.15
2018-04-17T05:55:13.793Z,18.90
2018-04-17T05:57:42.892Z,19.15
2018-04-17T06:00:11.157Z,18.40
2018-04-17T06:02:39.448Z,17.35
2018-04-17T06:05:07.726Z,15.13
2018-04-17T06:07:36.004Z,16.70
2018-04-17T06:10:04.316Z,15.00
2018-04-17T06:12:32.608Z,16.67
2018-04-17T06:15:00.870Z,18.27
2018-04-17T06:17:30.189Z,17.77
2018-04-17T06:19:58.624Z,14.97
2018-04-17T06:22:26.881Z,18.80
2018-04-17T06:24:55.142Z,20.93
2018-04-17T06:27:23.425Z,17.47
2018-04-17T06:29:51.688Z,18.37
2018-04-17T06:32:19.969Z,18.80
2018-04-17T06:34:48.258Z,21.77
2018-04-17T06:37:16.516Z,22.70
2018-04-17T06:39:44.772Z,18.70
2018-04-17T06:42:13.819Z,23.67
2018-04-17T06:44:42.085Z,18.00
2018-04-17T06:47:10.346Z,17.90
2018-04-17T06:49:39.385Z,18.57
2018-04-17T06:52:07.666Z,17.80
2018-04-17T06:54:35.928Z,24.83
2018-04-17T06:57:04.332Z,23.80
2018-04-17T06:59:33.379Z,19.80
2018-04-17T07:02:01.662Z,19.97
2018-04-17T07:04:29.919Z,19.03
2018-04-17T07:06:58.956Z,21.73
2018-04-17T07:09:27.215Z,19.87
2018-04-17T07:11:56.279Z,21.00
2018-04-17T07:14:24.645Z,19.63
2018-04-17T07:16:53.036Z,16.73
2018-04-17T07:19:21.312Z,14.43
2018-04-17T07:21:50.354Z,16.67
2018-04-17T07:24:18.666Z,14.83
2018-04-17T07:26:46.945Z,15.93
2018-04-17T07:29:15.199Z,17.07
2018-04-17T07:31:43.468Z,17.13
2018-04-17T07:34:12.505Z,15.83
2018-04-17T07:36:40.769Z,18.20
2018-04-17T07:39:10.496Z,16.53
2018-04-17T07:41:39.556Z,12.17
2018-04-17T07:44:07.817Z,15.70
2018-04-17T07:46:36.076Z,18.17
2018-04-17T07:49:06.448Z,14.37
2018-04-17T07:51:34.711Z,14.43
2018-04-17T07:54:03.749Z,14.60
2018-04-17T07:56:32.035Z,16.10
2018-04-17T07:59:00.301Z,12.43
2018-04-17T08:01:29.329Z,18.33
2018-04-17T08:03:57.599Z,16.27
2018-04-17T08:06:25.864Z,12.77
2018-04-17T08:08:54.123Z,13.87
2018-04-17T08:11:22.400Z,16.13
2018-04-17T08:13:50.660Z,13.47
2018-04-17T08:16:19.739Z,16.10
2018-04-17T08:18:48.024Z,14.30
2018-04-17T08:21:16.285Z,13.70
2018-04-17T08:23:44.547Z,14.97
2018-04-17T08:26:12.819Z,17.33
2018-04-17T08:28:41.869Z,15.80
2018-04-17T08:31:10.123Z,16.90
2018-04-17T08:33:39.186Z,13.67
2018-04-17T08:36:07.461Z,15.23
2018-04-17T08:38:35.723Z,13.27
2018-04-17T08:41:04.059Z,16.77
2018-04-17T08:43:32.408Z,13.80
2018-04-17T08:46:00.717Z,14.83
2018-04-17T08:48:29.000Z,14.33
2018-04-17T08:50:57.270Z,16.13
2018-04-17T08:53:25.527Z,15.20
2018-04-17T08:55:53.796Z,14.93
2018-04-17T08:58:22.060Z,15.30
2018-04-17T09:00:50.327Z,16.57
2018-04-17T09:03:19.363Z,18.23
2018-04-17T09:05:47.634Z,17.60
2018-04-17T09:08:15.884Z,15.43
2018-04-17T09:10:44.184Z,17.50
2018-04-17T09:13:13.208Z,21.10
2018-04-17T09:15:41.471Z,21.03
2018-04-17T09:18:09.763Z,16.87
2018-04-17T09:20:38.050Z,17.03
2018-04-17T09:23:06.345Z,16.70
2018-04-17T09:25:34.636Z,17.00
2018-04-17T09:28:02.907Z,15.60
2018-04-17T09:30:31.172Z,20.30
2018-04-17T09:32:59.445Z,21.30
2018-04-17T09:35:27.704Z,16.07
2018-04-17T09:37:56.728Z,21.57
2018-04-17T09:40:25.026Z,17.03
2018-04-17T09:42:53.275Z,17.53
2018-04-17T09:45:21.540Z,16.93
2018-04-17T09:47:49.822Z,26.00
2018-04-17T09:50:18.076Z,16.67
2018-04-17T09:52:46.357Z,17.30
2018-04-17T09:55:15.397Z,17.63
2018-04-17T09:57:43.670Z,15.07
2018-04-17T10:00:11.929Z,15.27
2018-04-17T10:02:40.208Z,18.60
2018-04-17T10:05:08.467Z,17.40
2018-04-17T10:07:36.720Z,18.43
2018-04-17T10:10:05.008Z,19.20
2018-04-17T10:12:34.032Z,20.07
2018-04-17T10:15:02.304Z,16.55
2018-04-17T10:17:30.604Z,18.53
2018-04-17T10:19:59.716Z,17.30
2018-04-17T10:22:27.971Z,16.50
2018-04-17T10:24:56.248Z,17.73
2018-04-17T10:27:24.528Z,18.90
2018-04-17T10:29:52.822Z,21.43
2018-04-17T10:32:21.059Z,18.60
2018-04-17T10:34:49.335Z,16.70
2018-04-17T10:37:18.352Z,20.97
2018-04-17T10:39:46.689Z,13.73
2018-04-17T10:42:14.899Z,12.83
2018-04-17T10:44:43.174Z,15.13
2018-04-17T10:47:11.448Z,13.57
2018-04-17T10:49:39.723Z,14.80
2018-04-17T10:52:07.983Z,12.87
2018-04-17T10:54:37.026Z,15.80
2018-04-17T10:57:05.287Z,16.90
2018-04-17T10:59:34.351Z,16.40
2018-04-17T11:02:02.626Z,15.47
2018-04-17T11:04:30.953Z,14.00
2018-04-17T11:06:59.265Z,14.33
2018-04-17T11:09:28.299Z,12.73
2018-04-17T11:11:56.560Z,17.33
2018-04-17T11:14:25.597Z,12.80
2018-04-17T11:16:53.867Z,13.17
2018-04-17T11:19:22.129Z,14.17
2018-04-17T11:21:50.385Z,13.40
2018-04-17T11:24:18.646Z,15.43
2018-04-17T11:26:48.923Z,15.10
2018-04-17T11:29:17.268Z,13.93
2018-04-17T11:31:45.528Z,11.03
2018-04-17T11:34:14.572Z,14.40
2018-04-17T11:36:42.829Z,14.50
2018-04-17T11:39:11.882Z,13.33
2018-04-17T11:41:40.136Z,13.05
2018-04-17T11:44:09.239Z,15.27
2018-04-17T11:46:38.752Z,14.57
2018-04-17T11:49:08.443Z,14.83
2018-04-17T11:51:36.712Z,14.40
2018-04-17T11:54:04.992Z,15.17
2018-04-17T11:56:33.273Z,13.95
2018-04-17T11:59:01.624Z,14.53
2018-04-17T12:01:29.942Z,16.13
2018-04-17T12:03:58.224Z,15.87
2018-04-17T12:06:27.247Z,16.93
2018-04-17T12:08:55.535Z,16.07
2018-04-17T12:11:23.790Z,16.47
2018-04-17T12:13:52.043Z,18.00
2018-04-17T12:16:20.320Z,13.40
2018-04-17T12:18:48.604Z,15.33
2018-04-17T12:21:16.868Z,13.40
2018-04-17T12:23:45.904Z,17.73
2018-04-17T12:26:14.169Z,13.47
2018-04-17T12:28:43.197Z,13.53
2018-04-17T12:31:11.469Z,16.00
2018-04-17T12:33:40.492Z,13.30
2018-04-17T12:36:08.782Z,16.33
2018-04-17T12:38:37.051Z,16.47
2018-04-17T12:41:06.080Z,15.23
2018-04-17T12:43:34.355Z,15.10
2018-04-17T12:46:03.676Z,15.77
2018-04-17T12:48:31.959Z,15.73
2018-04-17T12:51:01.036Z,15.23
2018-04-17T12:53:29.323Z,18.63
2018-04-17T12:55:57.606Z,13.73
2018-04-17T12:58:25.859Z,14.23
2018-04-17T13:00:54.133Z,14.63
2018-04-17T13:03:23.170Z,15.90
2018-04-17T13:05:51.536Z,16.07
2018-04-17T13:08:20.584Z,17.90
2018-04-17T13:10:48.834Z,13.03
2018-04-17T13:13:17.107Z,14.50
2018-04-17T13:15:46.175Z,14.93
2018-04-17T13:18:14.455Z,13.27
2018-04-17T13:20:42.721Z,14.97
2018-04-17T13:23:10.984Z,15.43
2018-04-17T13:25:40.013Z,15.13
2018-04-17T13:28:08.267Z,16.10
2018-04-17T13:30:36.534Z,18.43
2018-04-17T13:33:04.808Z,14.90
2018-04-17T13:35:33.080Z,14.93
2018-04-17T13:38:01.432Z,16.70
2018-04-17T13:40:29.701Z,14.07
2018-04-17T13:42:57.973Z,13.30
2018-04-17T13:45:26.248Z,14.43
2018-04-17T13:47:54.525Z,14.17
2018-04-17T13:50:22.784Z,13.47
2018-04-17T13:52:51.106Z,15.93
2018-04-17T13:55:19.393Z,13.47
2018-04-17T13:57:47.650Z,14.73
2018-04-17T14:00:15.920Z,15.73
2018-04-17T14:02:44.201Z,12.70
2018-04-17T14:05:12.451Z,14.27
2018-04-17T14:07:40.723Z,12.77
2018-04-17T14:10:09.747Z,15.50
2018-04-17T14:12:38.027Z,13.17
2018-04-17T14:15:07.059Z,13.63
2018-04-17T14:17:35.327Z,13.80
2018-04-17T14:20:04.384Z,15.53
2018-04-17T14:22:32.654Z,12.63
2018-04-17T14:25:00.928Z,13.82
2018-04-17T14:27:29.204Z,15.50
2018-04-17T14:29:57.492Z,13.67
2018-04-17T14:32:26.519Z,16.67
2018-04-17T14:34:54.795Z,11.87
2018-04-17T14:37:23.870Z,10.73
2018-04-17T14:39:52.135Z,11.93
2018-04-17T14:42:20.391Z,10.53
2018-04-17T14:44:48.672Z,11.77
2018-04-17T14:47:16.928Z,14.83
2018-04-17T14:49:45.211Z,12.93
2018-04-17T14:52:13.480Z,14.13
2018-04-17T14:54:41.833Z,10.53
2018-04-17T14:57:10.056Z,11.90
2018-04-17T14:59:38.335Z,11.57
2018-04-17T15:02:06.595Z,12.87
2018-04-17T15:04:35.620Z,12.17
2018-04-17T15:07:03.920Z,12.40
2018-04-17T15:09:32.200Z,11.43
2018-04-17T15:12:00.512Z,14.67
2018-04-17T15:14:28.798Z,14.47
2018-04-17T15:16:57.067Z,13.87
2018-04-17T15:19:25.357Z,13.13
2018-04-17T15:21:53.725Z,12.77
2018-04-17T15:24:21.943Z,11.90
2018-04-17T15:26:50.358Z,11.50
2018-04-17T15:29:19.507Z,13.50
2018-04-17T15:31:47.774Z,14.13
2018-04-17T15:34:16.048Z,10.97
2018-04-17T15:36:44.316Z,13.37
2018-04-17T15:39:12.584Z,13.77
2018-04-17T15:41:41.601Z,11.27
2018-04-17T15:44:09.880Z,12.47
2018-04-17T15:46:38.902Z,11.60
2018-04-17T15:49:07.199Z,13.23
2018-04-17T15:51:35.489Z,11.10
2018-04-17T15:54:03.769Z,13.53
2018-04-17T15:56:32.103Z,14.37
2018-04-17T15:59:01.636Z,12.13
2018-04-17T16:01:30.005Z,13.27
2018-04-17T16:03:58.251Z,15.87
2018-04-17T16:06:27.316Z,15.57
2018-04-17T16:08:55.597Z,13.33
2018-04-17T16:11:23.850Z,12.93
2018-04-17T16:13:52.128Z,11.13
2018-04-17T16:16:21.170Z,15.13
2018-04-17T16:18:49.441Z,12.67
2018-04-17T16:21:17.707Z,11.27
2018-04-17T16:23:46.727Z,10.93
2018-04-17T16:26:14.999Z,8.10
2018-04-17T16:28:43.304Z,9.43
2018-04-17T16:31:12.321Z,11.00
2018-04-17T16:33:40.576Z,10.90
2018-04-17T16:36:08.839Z,11.30
2018-04-17T16:38:37.098Z,9.20
2018-04-17T16:41:05.375Z,11.57
2018-04-17T16:43:34.460Z,12.97
2018-04-17T16:46:03.147Z,9.70
2018-04-17T16:48:31.599Z,10.57
2018-04-17T16:50:59.925Z,10.13
2018-04-17T16:53:28.195Z,11.87
2018-04-17T16:55:56.449Z,10.97
2018-04-17T16:58:24.767Z,12.00
2018-04-17T17:00:53.053Z,11.43
2018-04-17T17:03:21.299Z,10.87
2018-04-17T17:05:50.356Z,15.52
2018-04-17T17:08:18.622Z,11.33
2018-04-17T17:10:46.896Z,13.37
2018-04-17T17:13:15.181Z,13.40
2018-04-17T17:15:44.212Z,11.80
2018-04-17T17:18:12.482Z,9.23
2018-04-17T17:20:41.523Z,12.70
2018-04-17T17:23:09.780Z,11.37
2018-04-17T17:25:38.810Z,12.60
2018-04-17T17:28:07.138Z,13.77
2018-04-17T17:30:35.402Z,10.95
2018-04-17T17:33:03.690Z,11.40
2018-04-17T17:35:31.963Z,10.60
2018-04-17T17:38:00.245Z,14.87
2018-04-17T17:40:29.281Z,15.40
2018-04-17T17:42:57.571Z,11.30
2018-04-17T17:45:25.823Z,7.63
2018-04-17T17:47:54.861Z,10.07
2018-04-17T17:50:23.152Z,11.03
2018-04-17T17:52:51.453Z,15.07
2018-04-17T17:55:19.745Z,10.73
2018-04-17T17:57:48.121Z,10.90
2018-04-17T18:00:16.408Z,8.57
2018-04-17T18:02:45.449Z,12.10
2018-04-17T18:05:13.735Z,11.07
2018-04-17T18:07:42.407Z,9.90
2018-04-17T18:10:11.844Z,10.47
2018-04-17T18:12:40.120Z,12.73
2018-04-17T18:15:08.442Z,11.67
2018-04-17T18:17:36.700Z,10.57
2018-04-17T18:20:05.089Z,10.67
2018-04-17T18:22:34.121Z,11.33
2018-04-17T18:25:02.455Z,9.77
2018-04-17T18:27:30.732Z,10.60
2018-04-17T18:29:59.028Z,11.93
2018-04-17T18:32:27.304Z,9.37
2018-04-17T18:34:55.572Z,15.13
2018-04-17T18:37:23.865Z,15.27
2018-04-17T18:39:52.158Z,12.30
2018-04-17T18:42:20.453Z,14.00
2018-04-17T18:44:48.725Z,13.73
2018-04-17T18:47:16.987Z,11.88
2018-04-17T18:49:46.076Z,10.90
2018-04-17T18:52:14.476Z,11.70
2018-04-17T18:54:45.820Z,10.37
2018-04-17T18:57:16.304Z,9.27
2018-04-17T18:59:45.315Z,12.80
2018-04-17T19:02:13.572Z,12.40
2018-04-17T19:04:42.665Z,13.23
2018-04-17T19:07:10.928Z,15.00
2018-04-17T19:09:39.213Z,15.27
2018-04-17T19:12:07.479Z,24.40
2018-04-17T19:14:35.943Z,17.47
2018-04-17T19:17:04.208Z,11.97
2018-04-17T19:19:32.471Z,12.50
2018-04-17T19:22:01.819Z,10.13
2018-04-17T19:24:30.934Z,12.27
2018-04-17T19:26:59.211Z,11.30
2018-04-17T19:29:27.456Z,13.20
2018-04-17T19:31:55.738Z,13.47
2018-04-17T19:34:24.051Z,13.73
2018-04-17T19:36:52.312Z,16.43
2018-04-17T19:39:21.347Z,15.03
2018-04-17T19:41:49.643Z,12.27
2018-04-17T19:44:17.900Z,19.20
2018-04-17T19:46:46.921Z,14.87
2018-04-17T19:49:15.199Z,14.53
2018-04-17T19:51:44.319Z,14.00
2018-04-17T19:54:13.359Z,15.00
2018-04-17T19:56:41.667Z,15.00
2018-04-17T19:59:09.983Z,17.80
2018-04-17T20:01:38.303Z,14.70
2018-04-17T20:04:06.859Z,17.43
2018-04-17T20:06:35.140Z,14.60
2018-04-17T20:09:03.483Z,14.83
2018-04-17T20:11:32.463Z,14.33
2018-04-17T20:14:00.795Z,14.47
2018-04-17T20:16:29.308Z,16.27
2018-04-17T20:18:57.672Z,15.45
2018-04-17T20:21:25.931Z,15.47
2018-04-17T20:23:54.977Z,13.52
2018-04-17T20:26:23.269Z,18.37
2018-04-17T20:28:51.588Z,14.80
2018-04-17T20:31:19.895Z,17.20
2018-04-17T20:33:48.219Z,14.50
2018-04-17T20:36:17.286Z,16.03
2018-04-17T20:38:45.570Z,16.37
2018-04-17T20:41:13.863Z,18.30
2018-04-17T20:43:42.124Z,14.68
2018-04-17T20:46:10.392Z,13.20
2018-04-17T20:48:40.809Z,15.30
2018-04-17T20:51:09.848Z,12.87
2018-04-17T20:53:38.104Z,15.90
2018-04-17T20:56:07.167Z,15.97
2018-04-17T20:58:36.563Z,15.20
2018-04-17T21:01:04.933Z,13.90
2018-04-17T21:03:33.300Z,18.53
2018-04-17T21:06:03.944Z,16.80
2018-04-17T21:08:32.442Z,16.50
2018-04-17T21:11:00.751Z,15.30
2018-04-17T21:13:29.791Z,15.23
2018-04-17T21:15:58.052Z,15.90
2018-04-17T21:18:27.110Z,13.73
2018-04-17T21:20:55.375Z,13.03
2018-04-17T21:23:23.720Z,14.93
2018-04-17T21:25:52.040Z,14.13
2018-04-17T21:28:21.070Z,14.47
2018-04-17T21:30:49.440Z,16.57
2018-04-17T21:33:18.476Z,16.23
2018-04-17T21:35:46.738Z,13.73
2018-04-17T21:38:15.774Z,15.80
2018-04-17T21:40:44.073Z,14.07
2018-04-17T21:43:12.331Z,18.93
2018-04-17T21:45:40.611Z,15.15
2018-04-17T21:48:09.740Z,16.17
2018-04-17T21:50:38.007Z,17.83
2018-04-17T21:53:07.039Z,16.00
2018-04-17T21:55:35.329Z,18.77
2018-04-17T21:58:03.615Z,15.63
2018-04-17T22:00:32.003Z,16.20
2018-04-17T22:03:00.274Z,15.77
2018-04-17T22:05:29.312Z,16.93
2018-04-17T22:07:57.573Z,14.60
2018-04-17T22:10:26.616Z,16.30
2018-04-17T22:12:54.886Z,17.27
2018-04-17T22:15:23.921Z,15.17
2018-04-17T22:17:52.192Z,15.40
2018-04-17T22:20:20.462Z,14.70
2018-04-17T22:22:49.485Z,16.03
2018-04-17T22:25:17.783Z,15.53
2018-04-17T22:27:46.061Z,17.37
2018-04-17T22:30:15.143Z,16.70
2018-04-17T22:32:43.428Z,15.93
2018-04-17T22:35:11.692Z,15.33
2018-04-17T22:37:39.980Z,15.73
2018-04-17T22:40:08.284Z,15.73
2018-04-17T22:42:36.548Z,15.63
2018-04-17T22:45:04.851Z,14.67
2018-04-17T22:47:33.294Z,17.03
2018-04-17T22:50:01.543Z,14.90
2018-04-17T22:52:29.804Z,17.10
2018-04-17T22:54:58.107Z,13.80
2018-04-17T22:57:26.402Z,17.20
2018-04-17T22:59:54.673Z,15.07
2018-04-17T23:02:22.970Z,18.27
2018-04-17T23:04:51.223Z,17.20
2018-04-17T23:07:20.285Z,17.27
2018-04-17T23:09:48.580Z,17.03
2018-04-17T23:12:16.851Z,15.03
2018-04-17T23:14:45.135Z,19.13
2018-04-17T23:17:13.457Z,14.53
2018-04-17T23:19:41.727Z,15.33
2018-04-17T23:22:10.020Z,18.73
2018-04-17T23:24:38.286Z,19.50
2018-04-17T23:27:06.589Z,17.97
2018-04-17T23:29:34.915Z,15.73
2018-04-17T23:32:03.246Z,15.07
2018-04-17T23:34:32.271Z,20.17
2018-04-17T23:37:00.532Z,15.30
2018-04-17T23:39:29.599Z,16.90
2018-04-17T23:41:57.857Z,19.20
2018-04-17T23:44:26.130Z,20.77
2018-04-17T23:46:55.168Z,18.10
2018-04-17T23:49:23.440Z,24.50
2018-04-17T23:51:51.696Z,18.30
2018-04-17T23:54:20.792Z,21.33
2018-04-17T23:56:49.065Z,21.30
2018-04-17T23:59:17.339Z,24.80
